Time;durP1;ratioP1;P1;durP2;ratioP2;P2;SDS_P1;SDS_P2;PMS_P1;PMS_P2;Temp;Humidity;BMP_temperature;BMP_pressure;BME280_temperature;BME280_humidity;BME280_pressure;Samples;Min_cycle;Max_cycle;Signal;HPM_P1;HPM_P2
2021/12/10 00:02:12;;;;;;;39.00;25.40;;;;;;;1.66;82.54;96373.64;108156;1272;67888;-77
2021/12/10 00:04:44;;;;;;;48.80;34.30;;;;;;;1.61;82.66;96376.48;108162;1272;70479;-67
2021/12/10 00:07:20;;;;;;;34.70;23.50;;;;;;;1.56;82.86;96368.84;108026;1272;59726;-67
2021/12/10 00:09:54;;;;;;;28.90;19.90;;;;;;;1.57;82.60;96362.45;108006;1271;59729;-66
2021/12/10 00:12:30;;;;;;;29.80;18.50;;;;;;;1.59;82.43;96357.02;108048;1271;71551;-67
2021/12/10 00:15:00;;;;;;;19.10;12.30;;;;;;;1.62;81.97;96356.86;108086;1271;68691;-66
2021/12/10 00:17:29;;;;;;;20.40;13.40;;;;;;;1.63;81.90;96362.31;108088;1272;68434;-66
2021/12/10 00:20:01;;;;;;;17.50;10.20;;;;;;;1.61;81.80;96374.27;108175;1272;59703;-66
2021/12/10 00:22:40;;;;;;;14.90;10.00;;;;;;;1.63;81.84;96385.00;107905;1272;59713;-67
2021/12/10 00:25:18;;;;;;;16.20;11.30;;;;;;;1.62;81.80;96388.44;108060;1272;70867;-66
2021/12/10 00:27:51;;;;;;;13.60;9.10;;;;;;;1.62;81.67;96397.02;108178;1272;68728;-68
2021/12/10 00:30:28;;;;;;;14.20;8.90;;;;;;;1.64;81.47;96407.05;108028;1272;68615;-66
2021/12/10 00:33:10;;;;;;;17.90;13.40;;;;;;;1.67;81.66;96400.05;108085;1271;59682;-66
2021/12/10 00:35:41;;;;;;;17.70;12.50;;;;;;;1.69;81.80;96390.50;108196;1272;59713;-67
2021/12/10 00:38:11;;;;;;;17.20;12.50;;;;;;;1.70;81.72;96393.15;108185;1269;70770;-67
2021/12/10 00:40:42;;;;;;;31.30;20.40;;;;;;;1.72;82.13;96390.48;108153;1271;67860;-66
2021/12/10 00:43:12;;;;;;;25.70;18.00;;;;;;;1.72;82.18;96387.06;105536;1272;3494513;-67
2021/12/10 00:45:42;;;;;;;31.80;22.70;;;;;;;1.72;81.98;96382.77;108077;1272;59758;-66
2021/12/10 00:48:12;;;;;;;35.20;25.20;;;;;;;1.71;82.00;96376.64;108148;1272;59714;-66
2021/12/10 00:50:46;;;;;;;41.40;26.10;;;;;;;1.69;82.01;96374.84;108080;1272;70793;-68
2021/12/10 00:53:17;;;;;;;41.20;25.50;;;;;;;1.67;82.14;96373.09;108145;1269;68500;-66
2021/12/10 00:55:47;;;;;;;41.40;28.00;;;;;;;1.65;82.20;96362.19;108090;1271;69410;-67
2021/12/10 00:58:18;;;;;;;41.70;27.40;;;;;;;1.60;82.97;96354.02;107990;1272;59763;-67
2021/12/10 01:00:53;;;;;;;34.60;21.50;;;;;;;1.55;82.83;96349.33;108092;1274;59789;-66
2021/12/10 01:03:30;;;;;;;34.70;24.10;;;;;;;1.55;82.35;96345.73;108119;1272;71414;-66
2021/12/10 01:06:04;;;;;;;31.50;22.20;;;;;;;1.50;82.60;96342.01;108280;1269;68737;-67
2021/12/10 01:08:37;;;;;;;29.10;21.20;;;;;;;1.49;82.94;96341.08;108183;1269;69420;-66
2021/12/10 01:11:17;;;;;;;25.60;17.90;;;;;;;1.47;82.77;96328.94;108130;1272;59716;-67
2021/12/10 01:13:50;;;;;;;25.60;16.90;;;;;;;1.53;82.27;96321.45;108140;1272;59783;-67
2021/12/10 01:25:05;;;;;;;33.70;23.10;;;;;;;1.41;82.61;96293.73;108013;1272;59732;-67
2021/12/10 01:27:39;;;;;;;33.50;22.50;;;;;;;1.37;82.94;96287.96;108022;1272;59781;-67
2021/12/10 01:30:26;;;;;;;31.10;22.80;;;;;;;1.36;83.52;96287.17;108151;1269;71535;-68
2021/12/10 01:33:00;;;;;;;32.20;21.90;;;;;;;1.35;83.41;96280.70;108114;1272;67860;-68
2021/12/10 01:35:39;;;;;;;34.10;22.60;;;;;;;1.35;83.42;96276.04;108282;1272;69270;-67
2021/12/10 01:38:12;;;;;;;23.90;17.10;;;;;;;1.35;83.50;96285.31;108097;1269;59792;-68
2021/12/10 01:40:47;;;;;;;27.40;20.30;;;;;;;1.37;83.27;96292.74;108092;1272;59713;-67
2021/12/10 01:43:24;;;;;;;25.10;17.70;;;;;;;1.40;83.10;96302.36;108019;1272;71377;-68
2021/12/10 01:46:06;;;;;;;22.80;17.50;;;;;;;1.43;83.14;96301.02;108053;1272;68586;-68
2021/12/10 01:48:42;;;;;;;23.40;15.60;;;;;;;1.52;82.62;96297.12;108176;1270;68923;-68
2021/12/10 01:51:16;;;;;;;18.80;14.30;;;;;;;1.55;82.40;96300.88;108073;1271;59722;-67
2021/12/10 01:53:50;;;;;;;19.20;13.10;;;;;;;1.58;82.42;96304.50;108067;1272;59757;-68
2021/12/10 01:56:25;;;;;;;21.30;15.40;;;;;;;1.61;82.57;96299.55;108184;1271;71589;-66
2021/12/10 01:58:57;;;;;;;16.40;12.00;;;;;;;1.63;82.43;96297.73;107931;1274;68432;-67
2021/12/10 02:01:33;;;;;;;19.00;14.50;;;;;;;1.65;82.21;96293.14;108137;1272;68430;-67
2021/12/10 02:04:06;;;;;;;24.40;17.20;;;;;;;1.66;82.30;96287.58;108118;1272;59707;-68
2021/12/10 02:06:36;;;;;;;23.50;16.60;;;;;;;1.63;82.57;96274.02;108019;1271;59636;-67
2021/12/10 02:09:09;;;;;;;18.50;13.00;;;;;;;1.62;82.22;96269.05;108168;1272;71573;-67
2021/12/10 02:11:40;;;;;;;22.60;17.10;;;;;;;1.65;81.87;96265.48;108120;1269;68460;-67
2021/12/10 02:14:11;;;;;;;17.90;12.70;;;;;;;1.63;81.63;96239.83;108362;1269;68856;-70
2021/12/10 02:16:42;;;;;;;19.30;13.20;;;;;;;1.64;81.09;96235.32;108029;1272;59820;-68
2021/12/10 02:19:14;;;;;;;27.70;19.10;;;;;;;1.66;81.17;96235.38;108216;1272;59697;-67
2021/12/10 02:21:46;;;;;;;17.30;12.00;;;;;;;1.68;81.37;96230.80;108383;1269;71625;-67
2021/12/10 02:24:15;;;;;;;20.50;15.00;;;;;;;1.74;81.07;96226.17;108106;1272;67818;-67
2021/12/10 02:26:49;;;;;;;18.80;12.70;;;;;;;1.72;81.08;96236.08;108189;1272;68732;-66
2021/12/10 02:29:21;;;;;;;18.90;13.20;;;;;;;1.70;81.36;96235.46;108177;1272;59710;-68
2021/12/10 02:31:52;;;;;;;23.90;17.20;;;;;;;1.67;81.75;96236.70;107960;1272;59741;-68
2021/12/10 02:34:23;;;;;;;12.40;8.70;;;;;;;1.63;81.55;96238.63;107954;1272;71401;-67
2021/12/10 02:36:53;;;;;;;14.30;10.80;;;;;;;1.67;80.39;96244.27;108082;1272;67824;-67
2021/12/10 02:39:26;;;;;;;20.50;14.60;;;;;;;1.76;80.32;96249.05;108143;1269;69396;-67
2021/12/10 02:41:55;;;;;;;28.70;21.40;;;;;;;1.79;80.72;96260.91;108174;1272;59780;-66
2021/12/10 02:44:29;;;;;;;33.50;25.10;;;;;;;1.70;81.77;96272.09;108110;1272;59764;-66
2021/12/10 02:47:00;;;;;;;34.90;24.20;;;;;;;1.56;82.38;96281.12;107965;1271;70978;-67
2021/12/10 02:49:30;;;;;;;;;;;;;;;1.48;82.29;96288.06;108035;1275;68451;-68
2021/12/10 02:52:00;;;;;;;22.10;15.30;;;;;;;1.48;81.95;96293.41;108062;1271;67603;-66
2021/12/10 02:54:34;;;;;;;29.40;21.50;;;;;;;1.39;83.26;96302.98;108088;1271;59805;-67
2021/12/10 02:57:13;;;;;;;26.80;18.80;;;;;;;1.28;84.13;96302.20;107901;1274;59723;-66
2021/12/10 02:59:43;;;;;;;28.10;19.40;;;;;;;1.23;84.17;96301.58;108107;1271;71559;-67
2021/12/10 03:02:18;;;;;;;21.40;14.90;;;;;;;1.20;84.22;96293.15;108058;1271;68683;-67
2021/12/10 03:04:47;;;;;;;19.10;13.60;;;;;;;1.20;84.40;96283.91;108047;1272;69481;-67
2021/12/10 03:07:19;;;;;;;27.60;20.00;;;;;;;1.21;84.32;96280.95;108014;1272;59783;-68
2021/12/10 03:09:51;;;;;;;20.70;13.90;;;;;;;1.23;84.61;96274.80;108045;1271;59713;-67
2021/12/10 03:12:22;;;;;;;17.00;12.30;;;;;;;1.28;83.52;96275.71;108076;1272;71406;-66
2021/12/10 03:14:56;;;;;;;15.00;11.20;;;;;;;1.31;83.30;96271.98;108101;1271;68417;-67
2021/12/10 03:17:29;;;;;;;16.20;10.60;;;;;;;1.38;82.80;96271.27;108073;1273;67504;-67
2021/12/10 03:19:59;;;;;;;15.30;9.90;;;;;;;1.44;82.53;96278.63;108021;1271;59782;-68
2021/12/10 03:22:29;;;;;;;16.10;10.80;;;;;;;1.49;82.41;96287.48;107977;1272;59710;-66
2021/12/10 03:24:58;;;;;;;16.60;12.80;;;;;;;1.50;82.28;96289.85;108000;1272;69880;-67
2021/12/10 03:27:27;;;;;;;16.80;11.40;;;;;;;1.49;82.28;96287.14;108044;1272;66938;-67
2021/12/10 03:29:57;;;;;;;11.90;9.30;;;;;;;1.48;82.21;96289.92;108056;1272;68383;-67
2021/12/10 03:32:30;;;;;;;17.50;12.40;;;;;;;1.46;81.93;96291.41;108181;1271;59716;-66
2021/12/10 03:35:09;;;;;;;18.40;13.00;;;;;;;1.43;82.00;96288.64;108085;1272;59710;-68
2021/12/10 03:37:38;;;;;;;19.60;13.00;;;;;;;1.40;82.22;96278.84;108162;1272;71572;-67
2021/12/10 03:40:11;;;;;;;27.50;18.60;;;;;;;1.35;82.45;96294.59;108078;1273;67838;-74
2021/12/10 03:42:44;;;;;;;23.70;16.40;;;;;;;1.26;82.87;96306.59;108027;1271;69243;-78
2021/12/10 03:45:15;;;;;;;38.20;25.80;;;;;;;1.19;83.51;96318.42;108045;1272;59714;-67
2021/12/10 03:47:46;;;;;;;35.00;22.30;;;;;;;1.09;84.42;96319.64;108067;1272;59776;-67
2021/12/10 03:50:24;;;;;;;23.40;16.60;;;;;;;1.06;84.55;96312.80;108137;1270;71015;-67
2021/12/10 03:52:54;;;;;;;34.00;22.40;;;;;;;1.04;84.42;96307.08;108375;1269;68730;-67
2021/12/10 03:55:24;;;;;;;31.90;22.40;;;;;;;1.01;84.96;96295.86;108242;1269;68683;-67
2021/12/10 03:57:57;;;;;;;28.00;19.50;;;;;;;0.99;85.40;96301.81;108095;1272;59795;-68
2021/12/10 04:00:31;;;;;;;22.90;17.20;;;;;;;0.98;85.09;96312.34;108093;1272;59696;-67
2021/12/10 04:03:02;;;;;;;22.80;16.10;;;;;;;0.97;85.09;96318.91;108076;1272;71636;-67
2021/12/10 04:05:32;;;;;;;25.40;18.10;;;;;;;0.97;84.90;96312.73;107786;1272;67755;-67
2021/12/10 04:08:02;;;;;;;29.00;18.80;;;;;;;0.98;85.43;96306.86;108161;1272;69503;-67
2021/12/10 04:10:33;;;;;;;28.80;19.90;;;;;;;1.00;85.69;96294.88;108100;1271;59786;-69
2021/12/10 04:13:03;;;;;;;23.70;16.00;;;;;;;1.02;85.80;96276.45;108099;1272;59709;-67
2021/12/10 04:15:35;;;;;;;19.70;14.60;;;;;;;1.04;85.02;96252.19;108119;1271;71721;-67
2021/12/10 04:18:06;;;;;;;15.60;10.20;;;;;;;1.02;84.28;96243.69;108088;1272;68503;-67
2021/12/10 04:20:36;;;;;;;14.50;10.50;;;;;;;1.07;83.48;96247.89;108051;1275;67433;-67
2021/12/10 04:23:09;;;;;;;15.90;10.50;;;;;;;1.07;83.13;96254.22;107968;1274;59811;-68
2021/12/10 04:25:40;;;;;;;16.60;10.50;;;;;;;1.05;83.03;96246.11;108149;1272;59662;-67
2021/12/10 04:28:14;;;;;;;23.70;16.10;;;;;;;1.00;82.97;96244.77;108075;1273;71507;-73
2021/12/10 04:30:45;;;;;;;16.10;11.50;;;;;;;0.97;83.28;96259.21;108191;1272;67687;-69
2021/12/10 04:33:22;;;;;;;19.20;13.10;;;;;;;1.05;82.74;96270.12;107994;1272;69424;-67
2021/12/10 04:35:54;;;;;;;19.00;12.00;;;;;;;1.08;82.30;96277.66;107972;1275;59719;-67
2021/12/10 04:38:25;;;;;;;17.40;11.50;;;;;;;1.07;82.44;96271.75;108157;1271;59723;-67
2021/12/10 04:41:00;;;;;;;18.50;14.40;;;;;;;1.01;82.78;96259.66;108179;1272;70811;-67
2021/12/10 04:43:31;;;;;;;18.10;13.20;;;;;;;0.95;83.16;96258.95;108051;1271;68460;-67
2021/12/10 04:46:01;;;;;;;29.10;18.40;;;;;;;0.97;83.08;96253.17;108118;1272;68423;-66
2021/12/10 04:48:46;;;;;;;24.30;16.40;;;;;;;0.96;84.02;96244.13;108000;1271;59783;-68
2021/12/10 04:51:17;;;;;;;23.70;16.80;;;;;;;0.96;83.71;96245.67;108153;1272;59707;-66
2021/12/10 04:53:47;;;;;;;17.10;12.00;;;;;;;0.96;83.29;96255.15;108095;1272;71648;-66
2021/12/10 04:56:17;;;;;;;19.10;14.00;;;;;;;0.96;83.40;96264.72;108118;1270;67922;-69
2021/12/10 04:58:47;;;;;;;;;;;;;;;0.97;83.60;96272.56;108108;1272;69561;-69
2021/12/10 05:01:17;;;;;;;18.80;12.90;;;;;;;1.00;83.58;96276.02;108067;1271;59766;-68
2021/12/10 05:03:46;;;;;;;19.30;14.60;;;;;;;1.04;83.32;96274.94;108140;1272;59661;-66
2021/12/10 05:06:15;;;;;;;16.60;12.10;;;;;;;1.09;83.29;96273.02;108094;1272;70862;-70
2021/12/10 05:08:44;;;;;;;13.90;9.90;;;;;;;1.12;83.05;96274.91;108076;1272;68153;-68
2021/12/10 05:11:16;;;;;;;20.60;14.10;;;;;;;1.16;82.60;96269.56;108022;1272;69472;-67
2021/12/10 05:13:48;;;;;;;16.70;11.10;;;;;;;1.21;82.34;96268.42;108116;1271;59722;-67
2021/12/10 05:16:24;;;;;;;19.90;14.60;;;;;;;1.28;82.38;96269.04;108068;1272;59710;-67
2021/12/10 05:18:58;;;;;;;17.50;12.90;;;;;;;1.31;82.48;96275.08;108063;1275;71735;-66
2021/12/10 05:21:31;;;;;;;25.10;17.30;;;;;;;1.32;82.20;96274.66;107928;1274;68450;-67
2021/12/10 05:24:01;;;;;;;14.50;10.20;;;;;;;1.30;82.13;96274.63;108070;1272;68683;-66
2021/12/10 05:26:31;;;;;;;14.10;10.20;;;;;;;1.29;82.22;96272.42;108083;1272;59765;-70
2021/12/10 05:29:03;;;;;;;19.80;14.10;;;;;;;1.30;82.16;96271.17;108148;1272;59706;-68
2021/12/10 05:31:34;;;;;;;23.70;15.60;;;;;;;1.29;82.45;96267.81;108058;1272;71030;-67
2021/12/10 05:34:04;;;;;;;19.70;14.40;;;;;;;1.26;82.62;96269.66;108130;1271;67939;-67
2021/12/10 05:36:33;;;;;;;22.20;16.30;;;;;;;1.27;82.49;96284.54;108181;1273;68868;-67
2021/12/10 05:39:05;;;;;;;29.30;20.10;;;;;;;1.30;82.55;96296.05;108147;1270;59675;-67
2021/12/10 05:41:35;;;;;;;26.20;17.90;;;;;;;1.25;83.02;96315.55;108195;1272;59797;-67
2021/12/10 05:44:05;;;;;;;14.40;11.40;;;;;;;1.16;83.23;96321.70;108175;1272;71367;-67
2021/12/10 05:46:37;;;;;;;20.50;14.60;;;;;;;1.10;83.73;96328.22;108130;1274;68081;-77
2021/12/10 05:49:07;;;;;;;26.40;17.70;;;;;;;1.04;83.94;96333.81;108120;1272;69493;-66
2021/12/10 05:51:36;;;;;;;26.10;17.70;;;;;;;1.05;83.74;96331.55;108031;1272;59688;-66
2021/12/10 05:54:06;;;;;;;18.30;14.30;;;;;;;1.07;83.80;96325.11;108087;1272;60169;-67
2021/12/10 05:56:36;;;;;;;18.50;12.80;;;;;;;1.09;83.76;96319.49;108098;1270;71481;-66
2021/12/10 05:59:06;;;;;;;16.20;11.30;;;;;;;1.12;83.68;96317.77;108123;1275;68486;-67
2021/12/10 06:01:36;;;;;;;21.60;14.80;;;;;;;1.18;83.96;96312.14;107981;1272;68725;-66
2021/12/10 06:04:06;;;;;;;14.70;10.30;;;;;;;1.23;83.88;96309.30;108183;1272;60040;-66
2021/12/10 06:06:36;;;;;;;17.40;10.30;;;;;;;1.33;83.11;96315.80;108005;1275;59710;-67
2021/12/10 06:09:08;;;;;;;17.60;11.00;;;;;;;1.38;82.93;96323.98;108136;1272;70807;-66
2021/12/10 06:11:37;;;;;;;18.90;13.00;;;;;;;1.42;82.74;96327.33;108122;1272;67892;-66
2021/12/10 06:14:07;;;;;;;17.10;10.30;;;;;;;1.46;82.93;96323.88;108057;1272;69482;-66
2021/12/10 06:16:37;;;;;;;18.20;12.40;;;;;;;1.48;83.41;96315.34;108028;1275;59768;-66
2021/12/10 06:19:07;;;;;;;19.30;13.40;;;;;;;1.52;83.07;96310.13;108008;1274;59703;-65
2021/12/10 06:21:38;;;;;;;18.60;13.30;;;;;;;1.57;82.92;96311.13;108084;1274;70804;-65
2021/12/10 06:24:08;;;;;;;18.60;13.80;;;;;;;1.59;82.82;96315.48;107996;1274;68256;-67
2021/12/10 06:26:37;;;;;;;19.10;13.10;;;;;;;1.60;82.96;96319.85;108045;1272;68642;-66
2021/12/10 06:29:08;;;;;;;21.30;15.10;;;;;;;1.64;82.78;96322.23;108001;1274;59708;-66
2021/12/10 06:31:38;;;;;;;32.70;24.40;;;;;;;1.70;82.81;96325.70;108026;1271;59658;-66
2021/12/10 06:34:10;;;;;;;45.70;32.50;;;;;;;1.70;84.74;96327.72;108069;1275;71590;-67
2021/12/10 06:36:40;;;;;;;35.00;23.70;;;;;;;1.70;84.72;96330.11;108099;1270;67933;-67
2021/12/10 06:39:09;;;;;;;40.30;26.90;;;;;;;1.73;83.77;96331.34;108103;1270;69453;-66
2021/12/10 06:41:38;;;;;;;54.40;38.50;;;;;;;1.71;84.28;96334.71;108173;1274;59725;-66
2021/12/10 06:44:07;;;;;;;39.50;27.50;;;;;;;1.71;84.23;96346.21;108087;1272;59725;-67
2021/12/10 06:46:36;;;;;;;56.80;38.90;;;;;;;1.72;84.29;96347.38;108027;1272;70998;-67
2021/12/10 06:49:05;;;;;;;42.10;31.90;;;;;;;1.72;84.72;96347.71;107967;1275;68644;-66
2021/12/10 06:51:35;;;;;;;31.70;24.70;;;;;;;1.76;84.69;96344.23;108039;1272;68924;-66
2021/12/10 06:54:04;;;;;;;34.20;24.70;;;;;;;1.81;84.67;96346.38;108065;1272;59739;-66
2021/12/10 06:56:35;;;;;;;33.20;25.70;;;;;;;1.85;85.11;96348.21;107978;1274;59699;-66
2021/12/10 06:59:06;;;;;;;34.10;25.80;;;;;;;1.87;85.65;96347.38;108116;1271;71566;-67
2021/12/10 07:01:41;;;;;;;35.40;24.30;;;;;;;1.90;85.36;96348.43;108133;1272;68765;-67
2021/12/10 07:04:13;;;;;;;23.50;18.90;;;;;;;1.96;85.17;96356.21;108106;1272;68945;-68
2021/12/10 07:06:44;;;;;;;28.80;20.60;;;;;;;2.01;85.01;96357.79;108073;1272;59707;-67
2021/12/10 07:09:18;;;;;;;24.00;18.40;;;;;;;2.06;84.88;96353.42;108084;1272;59695;-66
2021/12/10 07:11:48;;;;;;;28.70;20.80;;;;;;;2.10;84.77;96345.61;108065;1274;71632;-66
2021/12/10 07:14:18;;;;;;;25.30;18.60;;;;;;;2.13;84.77;96341.17;108070;1272;68668;-66
2021/12/10 07:16:48;;;;;;;22.40;15.20;;;;;;;2.15;84.95;96334.86;108040;1272;68887;-68
2021/12/10 07:19:18;;;;;;;27.60;17.50;;;;;;;2.18;84.83;96326.40;107886;1272;59782;-67
2021/12/10 07:21:47;;;;;;;15.00;10.70;;;;;;;2.23;84.73;96323.59;107917;1275;59753;-66
2021/12/10 07:24:19;;;;;;;15.90;12.10;;;;;;;2.28;83.98;96327.41;108068;1272;70673;-67
2021/12/10 07:26:50;;;;;;;15.10;11.20;;;;;;;2.32;84.17;96321.34;107964;1273;68467;-66
2021/12/10 07:29:21;;;;;;;;;;;;;;;2.36;84.80;96320.05;107950;1271;69478;-66
2021/12/10 07:31:50;;;;;;;20.80;15.50;;;;;;;2.38;85.00;96327.52;108135;1271;59772;-66
2021/12/10 07:34:19;;;;;;;66.40;45.30;;;;;;;2.39;84.11;96321.97;108083;1274;59773;-66
2021/12/10 07:36:48;;;;;;;66.90;46.90;;;;;;;2.37;84.45;96317.46;108055;1275;71588;-67
2021/12/10 07:39:17;;;;;;;72.00;52.20;;;;;;;2.35;85.15;96317.18;108035;1272;67865;-66
2021/12/10 07:41:47;;;;;;;49.50;38.00;;;;;;;2.31;85.25;96322.61;108095;1272;68727;-66
2021/12/10 07:44:17;;;;;;;69.70;49.50;;;;;;;2.30;84.65;96326.06;108050;1272;59713;-67
2021/12/10 07:46:48;;;;;;;74.50;54.30;;;;;;;2.28;85.06;96328.98;108075;1274;59723;-68
2021/12/10 07:49:27;;;;;;;58.30;41.90;;;;;;;2.23;85.27;96337.85;108192;1272;70808;-67
2021/12/10 07:51:57;;;;;;;53.70;38.60;;;;;;;2.18;85.08;96347.92;108084;1271;67641;-68
2021/12/10 07:54:26;;;;;;;54.60;36.70;;;;;;;2.17;85.25;96349.85;108121;1272;68764;-66
2021/12/10 07:56:55;;;;;;;49.20;34.10;;;;;;;2.15;85.34;96354.94;107858;1275;59731;-69
2021/12/10 07:59:24;;;;;;;46.90;31.20;;;;;;;2.11;85.08;96365.83;108170;1272;59745;-68
2021/12/10 08:01:53;;;;;;;46.60;33.10;;;;;;;2.07;84.74;96370.53;108043;1272;70790;-74
2021/12/10 08:04:22;;;;;;;51.30;37.30;;;;;;;2.07;85.56;96373.59;108095;1274;67922;-78
2021/12/10 08:06:51;;;;;;;45.10;30.90;;;;;;;2.09;86.38;96374.58;108079;1272;68675;-81
2021/12/10 08:09:20;;;;;;;37.30;27.20;;;;;;;2.13;86.18;96365.05;108134;1274;59720;-81
2021/12/10 08:11:50;;;;;;;41.00;29.80;;;;;;;2.20;86.21;96362.42;108086;1272;59720;-74
2021/12/10 08:14:19;;;;;;;47.80;32.20;;;;;;;2.26;86.73;96346.40;108146;1272;72149;-81
2021/12/10 08:16:49;;;;;;;39.20;27.40;;;;;;;2.29;86.95;96340.07;108126;1272;68012;-80
2021/12/10 08:19:18;;;;;;;38.80;27.40;;;;;;;2.34;87.20;96340.48;108096;1273;70052;-74
2021/12/10 08:21:47;;;;;;;37.40;26.80;;;;;;;2.40;87.43;96332.59;108089;1272;59695;-78
2021/12/10 08:24:16;;;;;;;34.40;24.40;;;;;;;2.47;87.70;96331.82;108106;1274;59703;-76
2021/12/10 08:26:45;;;;;;;35.10;23.00;;;;;;;2.52;87.78;96335.13;108108;1272;71665;-80
2021/12/10 08:29:16;;;;;;;27.50;18.50;;;;;;;2.59;87.66;96333.23;108033;1272;68723;-80
2021/12/10 08:31:45;;;;;;;27.20;19.00;;;;;;;2.67;87.81;96333.29;108090;1272;69524;-80
2021/12/10 08:34:14;;;;;;;29.10;19.20;;;;;;;2.74;87.94;96331.65;108077;1272;59766;-81
2021/12/10 08:36:43;;;;;;;25.30;19.70;;;;;;;2.80;88.43;96320.60;108101;1272;59704;-66
2021/12/10 08:39:14;;;;;;;25.10;18.00;;;;;;;2.87;88.13;96314.38;108089;1274;70800;-81
2021/12/10 08:41:43;;;;;;;25.70;19.00;;;;;;;2.93;87.23;96312.45;107801;1272;551936;-78
2021/12/10 08:44:13;;;;;;;35.50;24.70;;;;;;;2.99;86.31;96314.33;108100;1274;68597;-81
2021/12/10 08:46:44;;;;;;;34.60;25.80;;;;;;;3.03;86.10;96312.35;108082;1272;59774;-79
2021/12/10 08:49:14;;;;;;;47.90;33.40;;;;;;;3.07;85.73;96313.15;108142;1275;59744;-77
2021/12/10 08:51:48;;;;;;;44.70;34.60;;;;;;;3.08;85.83;96313.63;108062;1272;71659;-78
2021/12/10 08:54:19;;;;;;;45.90;35.00;;;;;;;3.08;85.79;96314.80;108071;1275;67010;-80
2021/12/10 08:56:48;;;;;;;82.40;58.90;;;;;;;3.08;85.75;96319.28;108110;1274;68667;-80
2021/12/10 08:59:21;;;;;;;58.90;44.00;;;;;;;3.06;86.52;96320.39;107848;1272;60087;-79
2021/12/10 09:01:57;;;;;;;48.90;35.00;;;;;;;3.08;86.12;96318.77;108073;1271;59774;-78
2021/12/10 09:04:29;;;;;;;65.50;47.20;;;;;;;3.11;86.09;96315.16;108108;1272;71547;-80
2021/12/10 09:07:06;;;;;;;41.20;29.30;;;;;;;3.13;86.08;96318.45;108152;1275;68912;-72
2021/12/10 09:09:38;;;;;;;37.20;26.00;;;;;;;3.17;85.87;96321.88;108079;1271;69556;-68
2021/12/10 09:12:24;;;;;;;50.20;35.60;;;;;;;3.20;86.03;96331.82;108118;1274;59767;-77
2021/12/10 09:14:55;;;;;;;38.00;29.90;;;;;;;3.23;86.22;96335.40;108111;1272;59773;-71
2021/12/10 09:17:28;;;;;;;61.80;44.20;;;;;;;3.27;86.10;96330.36;108118;1275;71595;-77
2021/12/10 09:20:01;;;;;;;42.30;32.00;;;;;;;3.30;86.18;96330.85;108127;1274;68822;-76
2021/12/10 09:22:30;;;;;;;49.50;37.80;;;;;;;3.35;86.00;96333.70;108136;1272;68673;-69
2021/12/10 09:25:00;;;;;;;50.10;36.60;;;;;;;3.38;86.34;96327.65;108139;1275;59698;-74
2021/12/10 09:27:30;;;;;;;49.30;35.90;;;;;;;3.40;86.28;96327.30;108086;1274;59675;-76
2021/12/10 09:29:59;;;;;;;36.80;28.50;;;;;;;3.44;86.09;96323.11;108130;1272;71498;-77
2021/12/10 09:32:28;;;;;;;41.70;30.80;;;;;;;3.47;85.97;96321.51;108055;1275;68668;-73
2021/12/10 09:35:02;;;;;;;46.50;37.10;;;;;;;3.51;86.00;96310.27;108052;1271;68922;-79
2021/12/10 09:37:33;;;;;;;48.60;38.70;;;;;;;3.55;86.08;96309.15;108105;1275;59703;-81
2021/12/10 09:40:06;;;;;;;29.90;23.00;;;;;;;3.58;86.34;96303.79;107914;1275;59704;-77
2021/12/10 09:42:35;;;;;;;54.90;43.00;;;;;;;3.62;85.38;96303.26;108140;1272;71590;-80
2021/12/10 09:45:07;;;;;;;48.20;34.70;;;;;;;3.63;85.54;96304.56;108119;1272;68696;-79
2021/12/10 09:47:38;;;;;;;78.50;54.50;;;;;;;3.62;85.91;96301.88;108112;1272;69476;-71
2021/12/10 09:50:09;;;;;;;61.70;45.50;;;;;;;3.58;87.19;96301.92;108043;1272;59713;-76
2021/12/10 09:52:38;;;;;;;52.40;39.00;;;;;;;3.58;87.60;96303.45;108101;1272;59792;-73
2021/12/10 09:55:11;;;;;;;38.20;28.50;;;;;;;3.63;87.19;96305.23;108154;1275;70786;-79
2021/12/10 09:57:41;;;;;;;39.90;29.70;;;;;;;3.69;86.97;96300.73;108057;1273;68673;-76
2021/12/10 10:00:30;;;;;;;46.90;34.20;;;;;;;3.75;87.50;96295.15;108053;1273;69472;-78
2021/12/10 10:03:00;;;;;;;44.00;33.10;;;;;;;3.81;87.82;96297.35;107975;1275;59779;-73
2021/12/10 10:05:31;;;;;;;38.70;30.80;;;;;;;3.87;88.07;96291.67;108112;1272;59678;-79
2021/12/10 10:08:07;;;;;;;31.80;23.80;;;;;;;3.92;88.02;96288.19;107951;1273;70049;-71
2021/12/10 10:10:41;;;;;;;24.70;18.80;;;;;;;3.99;87.47;96292.26;107945;1275;68736;-78
2021/12/10 10:13:13;;;;;;;23.30;17.70;;;;;;;4.05;86.81;96285.61;108077;1273;69058;-73
2021/12/10 10:15:46;;;;;;;37.70;30.30;;;;;;;4.12;86.22;96284.89;108010;1275;59838;-72
2021/12/10 10:18:20;;;;;;;43.10;33.50;;;;;;;4.14;86.63;96282.30;108109;1272;59754;-76
2021/12/10 10:20:54;;;;;;;48.30;38.60;;;;;;;4.17;85.87;96274.05;108126;1275;72666;-78
2021/12/10 10:23:27;;;;;;;53.50;40.40;;;;;;;4.16;86.70;96270.66;108049;1275;68773;-81
2021/12/10 10:26:00;;;;;;;45.60;34.60;;;;;;;4.17;87.07;96264.05;108064;1272;68809;-82
2021/12/10 10:28:30;;;;;;;40.90;29.70;;;;;;;4.20;87.02;96258.81;108088;1275;59796;-81
2021/12/10 10:31:05;;;;;;;37.30;28.00;;;;;;;4.23;87.17;96251.53;108049;1269;59758;-78
2021/12/10 10:33:36;;;;;;;30.30;24.00;;;;;;;4.29;87.10;96257.56;108016;1272;70809;-71
2021/12/10 10:36:17;;;;;;;23.50;16.40;;;;;;;4.35;86.75;96262.15;108157;1274;68860;-69
2021/12/10 10:38:51;;;;;;;30.60;23.50;;;;;;;4.41;86.39;96265.86;108092;1273;69065;-70
2021/12/10 10:41:24;;;;;;;45.40;32.60;;;;;;;4.46;86.10;96263.83;108015;1275;59710;-77
2021/12/10 10:43:55;;;;;;;32.10;26.20;;;;;;;4.48;86.53;96264.21;108043;1276;59735;-68
2021/12/10 10:46:25;;;;;;;42.30;30.50;;;;;;;4.51;86.65;96264.71;108066;1275;69902;-68
2021/12/10 10:48:54;;;;;;;51.80;39.20;;;;;;;4.54;86.68;96256.40;108182;1273;69214;-72
2021/12/10 10:51:33;;;;;;;42.40;32.60;;;;;;;4.54;86.91;96252.76;108058;1272;69914;-75
2021/12/10 10:54:05;;;;;;;37.20;27.80;;;;;;;4.58;87.05;96247.84;108065;1275;59701;-78
2021/12/10 10:56:37;;;;;;;36.60;27.40;;;;;;;4.62;86.82;96250.00;108132;1275;59722;-76
2021/12/10 10:59:15;;;;;;;34.00;26.70;;;;;;;4.66;86.83;96248.33;108172;1272;70898;-81
2021/12/10 11:01:57;;;;;;;34.50;27.10;;;;;;;4.73;86.82;96244.98;107946;1275;68900;-77
2021/12/10 11:04:43;;;;;;;39.90;30.60;;;;;;;4.80;86.94;96238.92;108126;1275;69561;-76
2021/12/10 11:07:20;;;;;;;35.70;26.40;;;;;;;4.88;87.24;96235.63;108204;1272;59713;-81
2021/12/10 11:09:56;;;;;;;31.40;22.40;;;;;;;4.94;87.24;96232.77;108170;1273;59665;-74
2021/12/10 11:12:31;;;;;;;27.60;21.10;;;;;;;5.01;87.09;96220.58;108136;1272;72203;-76
2021/12/10 11:15:02;;;;;;;26.10;20.60;;;;;;;5.05;87.37;96220.30;108113;1272;68623;-69
2021/12/10 11:17:34;;;;;;;29.40;22.90;;;;;;;5.09;87.37;96217.23;108160;1274;69542;-76
2021/12/10 11:20:10;;;;;;;30.60;22.80;;;;;;;5.12;87.22;96222.20;108034;1273;59725;-82
2021/12/10 11:22:54;;;;;;;33.50;25.60;;;;;;;5.18;87.14;96218.72;108085;1273;59780;-81
2021/12/10 11:25:37;;;;;;;29.80;23.70;;;;;;;5.25;87.17;96210.09;108061;1273;70974;-76
2021/12/10 11:28:19;;;;;;;24.60;17.10;;;;;;;5.34;86.98;96217.53;107984;1275;68644;-80
2021/12/10 11:31:02;;;;;;;41.70;29.00;;;;;;;5.43;86.01;96205.33;108029;1275;68667;-78
2021/12/10 11:33:36;;;;;;;40.60;29.30;;;;;;;5.48;87.02;96187.88;108164;1272;59743;-72
2021/12/10 11:36:19;;;;;;;41.20;31.50;;;;;;;5.52;87.23;96183.56;108124;1272;59652;-80
2021/12/10 11:38:54;;;;;;;41.60;31.30;;;;;;;5.56;87.11;96176.73;108124;1272;72275;-80
2021/12/10 11:41:27;;;;;;;37.50;27.80;;;;;;;5.63;87.18;96172.47;108103;1275;68590;-78
2021/12/10 11:44:18;;;;;;;36.20;26.90;;;;;;;5.71;87.36;96159.09;108138;1275;68448;-80
2021/12/10 11:47:12;;;;;;;29.00;21.80;;;;;;;5.79;87.24;96143.45;108143;1274;59786;-79
2021/12/10 11:49:42;;;;;;;25.40;17.50;;;;;;;5.90;86.79;96139.89;108166;1272;59764;-71
2021/12/10 11:52:16;;;;;;;23.80;18.50;;;;;;;6.05;86.57;96143.08;108405;1273;71587;-79